createdAt,value
2022-11-16T00:00:18.404Z,0.00
2022-11-16T00:01:18.415Z,0.00
2022-11-16T00:02:18.541Z,0.00
2022-11-16T00:03:18.441Z,0.00
2022-11-16T00:04:18.457Z,0.00
2022-11-16T00:05:18.464Z,0.00
2022-11-16T00:06:18.483Z,0.00
2022-11-16T00:07:18.551Z,0.00
2022-11-16T00:08:18.492Z,0.00
2022-11-16T00:09:18.518Z,0.00
2022-11-16T00:10:18.548Z,0.00
2022-11-16T00:11:18.521Z,0.00
2022-11-16T00:12:18.546Z,0.00
2022-11-16T00:13:18.570Z,0.00
2022-11-16T00:14:18.595Z,0.00
2022-11-16T00:15:18.607Z,0.00
2022-11-16T00:16:18.630Z,0.00
2022-11-16T00:17:18.634Z,0.00
2022-11-16T00:18:18.676Z,0.00
2022-11-16T00:19:18.680Z,0.00
2022-11-16T00:20:18.710Z,0.00
2022-11-16T00:21:18.713Z,0.00
2022-11-16T00:22:18.721Z,0.00
2022-11-16T00:23:18.735Z,0.00
2022-11-16T00:24:18.762Z,0.00
2022-11-16T00:25:18.813Z,0.00
2022-11-16T00:26:18.772Z,0.00
2022-11-16T00:27:18.767Z,0.00
2022-11-16T00:28:18.764Z,0.00
2022-11-16T00:29:19.002Z,0.00
2022-11-16T00:30:18.781Z,0.00
2022-11-16T00:31:18.779Z,0.00
2022-11-16T00:32:18.813Z,0.00
2022-11-16T00:33:18.830Z,0.00
2022-11-16T00:34:18.863Z,0.00
2022-11-16T00:35:18.864Z,0.00
2022-11-16T00:36:18.888Z,0.00
2022-11-16T00:37:18.956Z,0.00
2022-11-16T00:38:18.942Z,0.00
2022-11-16T00:39:18.953Z,0.00
2022-11-16T00:40:18.982Z,0.00
2022-11-16T00:41:18.995Z,0.00
2022-11-16T00:42:19.010Z,0.00
2022-11-16T00:43:19.013Z,0.00
2022-11-16T00:44:19.049Z,0.00
2022-11-16T00:45:19.104Z,0.00
2022-11-16T00:46:19.080Z,0.00
2022-11-16T00:47:19.092Z,0.00
2022-11-16T00:48:19.089Z,0.00
2022-11-16T00:49:19.101Z,0.00
2022-11-16T00:50:19.154Z,0.00
2022-11-16T00:51:19.150Z,0.00
2022-11-16T00:52:19.169Z,0.00
2022-11-16T00:53:19.183Z,0.00
2022-11-16T00:54:19.208Z,0.00
2022-11-16T00:55:19.229Z,0.00
2022-11-16T00:56:19.258Z,0.00
2022-11-16T00:57:19.275Z,0.00
2022-11-16T00:58:19.295Z,0.00
2022-11-16T00:59:19.308Z,0.00
2022-11-16T01:00:19.341Z,0.00
2022-11-16T01:01:19.462Z,0.00
2022-11-16T01:02:19.365Z,0.00
2022-11-16T01:03:19.383Z,0.00
2022-11-16T01:04:19.417Z,0.00
2022-11-16T01:05:19.432Z,0.00
2022-11-16T01:06:19.447Z,0.00
2022-11-16T01:07:19.587Z,0.00
2022-11-16T01:08:19.445Z,0.00
2022-11-16T01:09:19.464Z,0.00
2022-11-16T01:10:19.469Z,0.00
2022-11-16T01:11:19.485Z,0.00
2022-11-16T01:12:19.501Z,0.00
2022-11-16T01:13:19.523Z,0.00
2022-11-16T01:14:19.548Z,0.00
2022-11-16T01:15:19.601Z,0.00
2022-11-16T01:16:19.572Z,0.00
2022-11-16T01:17:19.595Z,0.00
2022-11-16T01:18:19.618Z,0.00
2022-11-16T01:19:19.645Z,0.00
2022-11-16T01:20:19.672Z,0.00
2022-11-16T01:21:19.651Z,0.00
2022-11-16T01:22:19.703Z,0.00
2022-11-16T01:23:19.652Z,0.00
2022-11-16T01:24:19.686Z,0.00
2022-11-16T01:25:19.748Z,0.00
2022-11-16T01:26:19.723Z,0.00
2022-11-16T01:27:19.746Z,0.00
2022-11-16T01:28:19.754Z,0.00
2022-11-16T01:29:19.775Z,0.00
2022-11-16T01:30:19.808Z,0.00
2022-11-16T01:31:19.794Z,0.00
2022-11-16T01:32:19.804Z,0.00
2022-11-16T01:33:19.827Z,0.00
2022-11-16T01:34:19.860Z,0.00
2022-11-16T01:35:19.884Z,0.00
2022-11-16T01:36:19.903Z,0.00
2022-11-16T01:37:19.905Z,0.00
2022-11-16T01:38:19.942Z,0.00
2022-11-16T01:39:19.950Z,0.00
2022-11-16T01:40:19.946Z,0.00
2022-11-16T01:41:19.966Z,0.00
2022-11-16T01:42:19.994Z,0.00
2022-11-16T01:43:19.967Z,0.00
2022-11-16T01:44:19.983Z,0.00
2022-11-16T01:45:20.015Z,0.00
2022-11-16T01:46:20.030Z,0.00
2022-11-16T01:47:20.045Z,0.00
2022-11-16T01:48:20.164Z,0.00
2022-11-16T01:49:20.078Z,0.00
2022-11-16T01:50:20.101Z,0.00
2022-11-16T01:51:20.129Z,0.00
2022-11-16T01:52:20.132Z,0.00
2022-11-16T01:53:20.149Z,0.00
2022-11-16T01:54:20.201Z,0.00
2022-11-16T01:55:20.200Z,0.00
2022-11-16T01:56:20.220Z,0.00
2022-11-16T01:57:20.236Z,0.00
2022-11-16T01:58:20.259Z,0.00
2022-11-16T01:59:20.294Z,0.00
2022-11-16T02:00:20.311Z,0.00
2022-11-16T02:01:20.377Z,0.00
2022-11-16T02:02:20.337Z,0.00
2022-11-16T02:03:20.376Z,0.00
2022-11-16T02:04:20.390Z,0.00
2022-11-16T02:05:20.411Z,0.00
2022-11-16T02:06:20.426Z,0.00
2022-11-16T02:07:20.522Z,0.00
2022-11-16T02:08:20.457Z,0.00
2022-11-16T02:09:20.490Z,0.00
2022-11-16T02:10:20.518Z,0.00
2022-11-16T02:11:20.519Z,0.00
2022-11-16T02:12:20.512Z,0.00
2022-11-16T02:13:20.537Z,0.00
2022-11-16T02:14:20.560Z,0.00
2022-11-16T02:15:20.586Z,0.00
2022-11-16T02:16:20.673Z,0.00
2022-11-16T02:17:20.629Z,0.00
2022-11-16T02:18:20.631Z,0.00
2022-11-16T02:19:20.655Z,0.00
2022-11-16T02:20:20.691Z,0.00
2022-11-16T02:21:20.721Z,0.00
2022-11-16T02:22:20.746Z,0.00
2022-11-16T02:23:20.751Z,0.00
2022-11-16T02:24:20.768Z,0.00
2022-11-16T02:25:20.787Z,0.00
2022-11-16T02:26:20.831Z,0.00
2022-11-16T02:27:20.826Z,0.00
2022-11-16T02:28:20.819Z,0.00
2022-11-16T02:29:20.832Z,0.00
2022-11-16T02:30:20.893Z,0.00
2022-11-16T02:31:20.841Z,0.00
2022-11-16T02:32:20.853Z,0.00
2022-11-16T02:33:20.871Z,0.00
2022-11-16T02:34:20.879Z,0.00
2022-11-16T02:35:20.913Z,0.00
2022-11-16T02:36:20.934Z,0.00
2022-11-16T02:37:20.963Z,0.00
2022-11-16T02:38:20.980Z,0.00
2022-11-16T02:39:20.983Z,0.00
2022-11-16T02:40:21.004Z,0.00
2022-11-16T02:41:20.999Z,0.00
2022-11-16T02:42:21.050Z,0.00
2022-11-16T02:43:21.066Z,0.00
2022-11-16T02:44:21.076Z,0.00
2022-11-16T02:45:21.087Z,0.00
2022-11-16T02:46:21.109Z,0.00
2022-11-16T02:47:21.131Z,0.00
2022-11-16T02:48:21.174Z,0.00
2022-11-16T02:49:21.183Z,0.00
2022-11-16T02:50:21.245Z,0.00
2022-11-16T02:51:21.208Z,0.00
2022-11-16T02:52:21.233Z,0.00
2022-11-16T02:53:21.243Z,0.00
2022-11-16T02:54:21.284Z,0.00
2022-11-16T02:55:21.302Z,0.00
2022-11-16T02:56:21.330Z,0.00
2022-11-16T02:57:21.329Z,0.00
2022-11-16T02:58:21.360Z,0.00
2022-11-16T02:59:21.354Z,0.00
2022-11-16T03:00:21.380Z,0.00
2022-11-16T03:01:21.584Z,0.00
2022-11-16T03:02:21.347Z,0.00
2022-11-16T03:03:21.377Z,0.00
2022-11-16T03:04:21.392Z,0.00
2022-11-16T03:05:21.414Z,0.00
2022-11-16T03:06:21.441Z,0.00
2022-11-16T03:07:21.485Z,0.00
2022-11-16T03:08:21.461Z,0.00
2022-11-16T03:09:21.461Z,0.00
2022-11-16T03:10:21.487Z,0.00
2022-11-16T03:11:21.512Z,0.00
2022-11-16T03:12:21.541Z,0.00
2022-11-16T03:13:21.574Z,0.00
2022-11-16T03:14:21.567Z,0.00
2022-11-16T03:15:21.566Z,0.00
2022-11-16T03:16:21.570Z,0.00
2022-11-16T03:17:21.805Z,0.00
2022-11-16T03:18:21.642Z,0.00
2022-11-16T03:19:21.607Z,0.00
2022-11-16T03:20:21.623Z,0.00
2022-11-16T03:21:21.640Z,0.00
2022-11-16T03:22:21.664Z,0.00
2022-11-16T03:23:21.677Z,0.00
2022-11-16T03:24:21.719Z,0.00
2022-11-16T03:25:21.734Z,0.00
2022-11-16T03:26:21.737Z,0.00
2022-11-16T03:27:21.758Z,0.00
2022-11-16T03:28:21.768Z,0.00
2022-11-16T03:29:21.756Z,0.00
2022-11-16T03:30:23.732Z,0.00
2022-11-16T03:31:21.786Z,0.00
2022-11-16T03:32:21.793Z,0.00
2022-11-16T03:33:21.827Z,0.00
2022-11-16T03:34:21.857Z,0.00
2022-11-16T03:35:21.846Z,0.00
2022-11-16T03:36:21.870Z,0.00
2022-11-16T03:37:21.827Z,0.00
2022-11-16T03:38:21.843Z,0.00
2022-11-16T03:39:21.841Z,0.00
2022-11-16T03:40:21.865Z,0.00
2022-11-16T03:41:21.891Z,0.00
2022-11-16T03:42:21.859Z,0.00
2022-11-16T03:43:21.861Z,0.00
2022-11-16T03:44:21.865Z,0.00
2022-11-16T03:45:21.860Z,0.00
2022-11-16T03:46:21.950Z,0.00
2022-11-16T03:47:21.908Z,0.00
2022-11-16T03:48:21.925Z,0.00
2022-11-16T03:49:21.954Z,0.00
2022-11-16T03:50:21.973Z,0.00
2022-11-16T03:51:21.986Z,0.00
2022-11-16T03:52:21.991Z,0.00
2022-11-16T03:53:22.011Z,0.00
2022-11-16T03:54:22.031Z,0.00
2022-11-16T03:55:22.052Z,0.00
2022-11-16T03:56:22.091Z,0.00
2022-11-16T03:57:22.114Z,0.00
2022-11-16T03:58:22.153Z,0.00
2022-11-16T03:59:22.166Z,0.00
2022-11-16T04:00:22.169Z,0.00
2022-11-16T04:01:22.333Z,0.00
2022-11-16T04:02:22.232Z,0.00
2022-11-16T04:03:22.220Z,0.00
2022-11-16T04:04:22.239Z,0.00
2022-11-16T04:05:22.244Z,0.00
2022-11-16T04:06:22.281Z,0.00
2022-11-16T04:07:22.336Z,0.00
2022-11-16T04:08:22.340Z,0.00
2022-11-16T04:09:22.358Z,0.00
2022-11-16T04:10:22.375Z,0.00
2022-11-16T04:11:22.384Z,0.00
2022-11-16T04:12:22.398Z,0.00
2022-11-16T04:13:22.433Z,0.00
2022-11-16T04:14:22.456Z,0.00
2022-11-16T04:15:22.468Z,0.00
2022-11-16T04:16:22.491Z,0.00
2022-11-16T04:17:22.510Z,0.00
2022-11-16T04:18:22.529Z,0.00
2022-11-16T04:19:22.519Z,0.00
2022-11-16T04:20:22.544Z,0.00
2022-11-16T04:21:22.564Z,0.00
2022-11-16T04:22:22.773Z,0.00
2022-11-16T04:23:22.608Z,0.00
2022-11-16T04:24:22.623Z,0.00
2022-11-16T04:25:22.633Z,0.00
2022-11-16T04:26:27.148Z,0.00
2022-11-16T04:27:22.650Z,0.00
2022-11-16T04:28:22.652Z,0.00
2022-11-16T04:29:22.900Z,0.00
2022-11-16T04:30:22.722Z,0.00
2022-11-16T04:31:22.729Z,0.00
2022-11-16T04:32:22.754Z,0.00
2022-11-16T04:33:22.773Z,0.00
2022-11-16T04:34:22.817Z,0.00
2022-11-16T04:35:22.826Z,0.00
2022-11-16T04:36:22.811Z,0.00
2022-11-16T04:37:22.833Z,0.00
2022-11-16T04:38:22.846Z,0.00
2022-11-16T04:39:22.847Z,0.00
2022-11-16T04:40:22.876Z,0.00
2022-11-16T04:41:22.900Z,0.00
2022-11-16T04:42:22.929Z,0.00
2022-11-16T04:43:22.964Z,0.00
2022-11-16T04:44:28.780Z,0.00
2022-11-16T04:45:22.974Z,0.00
2022-11-16T04:46:22.992Z,0.00
2022-11-16T04:47:23.006Z,0.00
2022-11-16T04:48:23.027Z,0.00
2022-11-16T04:49:23.021Z,0.00
2022-11-16T04:50:23.048Z,0.00
2022-11-16T04:51:23.044Z,0.00
2022-11-16T04:52:23.066Z,0.00
2022-11-16T04:53:23.073Z,0.00
2022-11-16T04:54:23.080Z,0.00
2022-11-16T04:55:23.090Z,0.00
2022-11-16T04:56:23.117Z,0.00
2022-11-16T04:57:23.143Z,0.00
2022-11-16T04:58:23.183Z,0.00
2022-11-16T04:59:23.189Z,0.00
2022-11-16T05:00:23.223Z,0.00
2022-11-16T05:01:23.319Z,0.00
2022-11-16T05:02:23.256Z,0.00
2022-11-16T05:03:23.284Z,0.00
2022-11-16T05:04:23.318Z,0.00
2022-11-16T05:05:23.332Z,0.00
2022-11-16T05:06:23.354Z,0.00
2022-11-16T05:07:23.437Z,0.00
2022-11-16T05:08:23.379Z,0.00
2022-11-16T05:09:23.380Z,0.00
2022-11-16T05:10:23.409Z,0.00
2022-11-16T05:11:23.432Z,0.00
2022-11-16T05:12:23.459Z,0.00
2022-11-16T05:13:23.474Z,0.00
2022-11-16T05:14:23.502Z,0.00
2022-11-16T05:15:23.509Z,0.00
2022-11-16T05:16:23.519Z,0.00
2022-11-16T05:17:23.563Z,0.00
2022-11-16T05:18:23.539Z,0.00
2022-11-16T05:19:23.558Z,0.00
2022-11-16T05:20:23.576Z,0.00
2022-11-16T05:21:23.591Z,0.00
2022-11-16T05:22:23.636Z,0.00
2022-11-16T05:23:23.638Z,0.00
2022-11-16T05:24:23.644Z,0.00
2022-11-16T05:25:23.658Z,0.00
2022-11-16T05:26:23.669Z,0.00
2022-11-16T05:27:23.706Z,0.00
2022-11-16T05:28:23.718Z,0.00
2022-11-16T05:29:23.738Z,0.00
2022-11-16T05:30:23.758Z,0.00
2022-11-16T05:31:23.782Z,0.00
2022-11-16T05:32:23.804Z,0.00
2022-11-16T05:33:23.798Z,0.00
2022-11-16T05:34:23.802Z,0.00
2022-11-16T05:35:23.825Z,0.00
2022-11-16T05:36:23.842Z,0.00
2022-11-16T05:37:23.868Z,0.00
2022-11-16T05:38:23.917Z,0.00
2022-11-16T05:39:23.921Z,0.00
2022-11-16T05:40:23.943Z,0.00
2022-11-16T05:41:23.958Z,0.00
2022-11-16T05:42:23.989Z,0.00
2022-11-16T05:43:24.018Z,0.00
2022-11-16T05:44:24.036Z,0.00
2022-11-16T05:45:24.046Z,0.00
2022-11-16T05:46:24.073Z,0.00
2022-11-16T05:47:24.093Z,0.00
2022-11-16T05:48:24.084Z,0.00
2022-11-16T05:49:24.081Z,0.00
2022-11-16T05:50:24.097Z,0.00
2022-11-16T05:51:24.130Z,0.00
2022-11-16T05:52:24.151Z,0.00
2022-11-16T05:53:24.188Z,0.00
2022-11-16T05:54:24.181Z,0.00
2022-11-16T05:55:24.155Z,0.00
2022-11-16T05:56:24.257Z,0.00
2022-11-16T05:57:24.188Z,0.00
2022-11-16T05:58:24.211Z,0.00
2022-11-16T05:59:24.231Z,0.00
2022-11-16T06:01:50.165Z,0.00
2022-11-16T06:02:50.197Z,0.00
2022-11-16T06:03:50.178Z,0.00
2022-11-16T06:04:50.314Z,0.00
2022-11-16T06:05:50.165Z,0.00
2022-11-16T06:06:50.242Z,0.00
2022-11-16T06:07:50.185Z,0.00
2022-11-16T06:08:50.212Z,0.00
2022-11-16T06:09:50.232Z,0.00
2022-11-16T06:10:50.234Z,0.00
2022-11-16T06:11:50.258Z,0.00
2022-11-16T06:12:50.263Z,0.00
2022-11-16T06:13:50.274Z,0.00
2022-11-16T06:14:50.295Z,1.00
2022-11-16T06:15:50.313Z,1.00
2022-11-16T06:16:50.629Z,1.00
2022-11-16T06:17:50.313Z,1.00
2022-11-16T06:18:50.327Z,1.00
2022-11-16T06:19:50.349Z,1.00
2022-11-16T06:20:50.379Z,2.00
2022-11-16T06:21:50.387Z,2.00
2022-11-16T06:22:50.405Z,3.00
2022-11-16T06:23:50.419Z,2.00
2022-11-16T06:24:50.429Z,3.00
2022-11-16T06:25:50.455Z,3.00
2022-11-16T06:26:50.487Z,3.00
2022-11-16T06:27:50.453Z,4.00
2022-11-16T06:28:50.468Z,5.00
2022-11-16T06:29:50.486Z,5.00
2022-11-16T06:30:50.507Z,5.00
2022-11-16T06:31:50.686Z,6.00
2022-11-16T06:32:50.691Z,6.00
2022-11-16T06:33:50.551Z,7.00
2022-11-16T06:34:50.589Z,7.00
2022-11-16T06:35:50.605Z,9.00
2022-11-16T06:36:50.624Z,10.00
2022-11-16T06:37:50.678Z,9.00
2022-11-16T06:38:50.630Z,10.00
2022-11-16T06:39:50.657Z,13.00
2022-11-16T06:40:50.673Z,15.00
2022-11-16T06:41:50.676Z,16.00
2022-11-16T06:42:50.718Z,18.00
2022-11-16T06:43:50.671Z,20.00
2022-11-16T06:44:50.701Z,22.00
2022-11-16T06:45:50.738Z,24.00
2022-11-16T06:46:50.750Z,28.00
2022-11-16T06:47:50.779Z,29.00
2022-11-16T06:48:51.143Z,30.00
2022-11-16T06:49:50.825Z,32.00
2022-11-16T06:50:50.878Z,33.00
2022-11-16T06:51:50.869Z,36.00
2022-11-16T06:52:50.856Z,38.00
2022-11-16T06:53:50.876Z,38.00
2022-11-16T06:54:50.895Z,38.00
2022-11-16T06:55:50.920Z,38.00
2022-11-16T06:56:50.943Z,40.00
2022-11-16T06:57:50.971Z,42.00
2022-11-16T06:58:53.434Z,44.00
2022-11-16T06:59:50.992Z,47.00
2022-11-16T07:00:51.006Z,49.00
2022-11-16T07:01:51.073Z,51.00
2022-11-16T07:02:51.031Z,53.00
2022-11-16T07:03:51.039Z,55.00
2022-11-16T07:04:51.190Z,58.00
2022-11-16T07:05:51.055Z,62.00
2022-11-16T07:06:51.108Z,66.00
2022-11-16T07:07:51.087Z,71.00
2022-11-16T07:08:51.085Z,76.00
2022-11-16T07:09:51.091Z,80.00
2022-11-16T07:10:51.099Z,80.00
2022-11-16T07:11:51.122Z,80.00
2022-11-16T07:12:51.138Z,82.00
2022-11-16T07:13:51.156Z,81.00
2022-11-16T07:14:51.158Z,86.00
2022-11-16T07:15:51.154Z,88.00
2022-11-16T07:16:54.962Z,89.00
2022-11-16T07:17:51.175Z,86.00
2022-11-16T07:18:51.208Z,88.00
2022-11-16T07:19:51.175Z,88.00
2022-11-16T07:21:08.401Z,85.00
2022-11-16T07:21:51.183Z,85.00
2022-11-16T07:22:51.210Z,83.00
2022-11-16T07:23:51.199Z,83.00
2022-11-16T07:24:51.214Z,331.00
2022-11-16T07:25:51.220Z,456.00
2022-11-16T07:26:51.236Z,483.00
2022-11-16T07:27:51.249Z,488.00
2022-11-16T07:28:51.252Z,486.00
2022-11-16T07:29:51.287Z,487.00
2022-11-16T07:30:51.291Z,489.00
2022-11-16T07:31:51.289Z,492.00
2022-11-16T07:32:51.311Z,520.00
2022-11-16T07:33:51.313Z,526.00
2022-11-16T07:34:51.346Z,533.00
2022-11-16T07:35:51.332Z,539.00
2022-11-16T07:36:51.652Z,545.00
2022-11-16T07:37:51.393Z,551.00
2022-11-16T07:38:51.398Z,551.00
2022-11-16T07:39:51.388Z,541.00
2022-11-16T07:40:51.519Z,544.00
2022-11-16T07:41:51.502Z,542.00
2022-11-16T07:42:51.442Z,537.00
2022-11-16T07:43:53.182Z,545.00
2022-11-16T07:44:51.444Z,530.00
2022-11-16T07:45:51.443Z,520.00
2022-11-16T07:46:51.444Z,506.00
2022-11-16T07:47:51.448Z,494.00
2022-11-16T07:49:57.565Z,490.00
2022-11-16T07:50:57.555Z,494.00
2022-11-16T07:51:57.482Z,506.00
2022-11-16T07:52:57.465Z,508.00
2022-11-16T07:53:57.475Z,513.00
2022-11-16T07:54:57.497Z,535.00
2022-11-16T07:55:57.487Z,541.00
2022-11-16T07:56:57.499Z,558.00
2022-11-16T07:57:57.502Z,559.00
2022-11-16T07:58:57.511Z,154.00
2022-11-16T07:59:57.504Z,164.00
2022-11-16T08:00:57.529Z,173.00
2022-11-16T08:01:57.629Z,184.00
2022-11-16T08:02:57.523Z,193.00
2022-11-16T08:03:57.569Z,202.00
2022-11-16T08:04:57.531Z,203.00
2022-11-16T08:05:57.539Z,202.00
2022-11-16T08:06:57.583Z,205.00
2022-11-16T08:07:57.565Z,211.00
2022-11-16T08:09:04.206Z,223.00
2022-11-16T08:09:57.630Z,237.00
2022-11-16T08:10:57.600Z,250.00
2022-11-16T08:11:57.628Z,244.00
2022-11-16T08:12:57.662Z,239.00
2022-11-16T08:13:57.641Z,250.00
2022-11-16T08:14:57.624Z,266.00
2022-11-16T08:15:57.645Z,280.00
2022-11-16T08:16:57.666Z,303.00
2022-11-16T08:17:57.688Z,318.00
2022-11-16T08:18:57.702Z,325.00
2022-11-16T08:19:57.734Z,329.00
2022-11-16T08:20:57.705Z,334.00
2022-11-16T08:21:57.748Z,348.00
2022-11-16T08:22:57.773Z,359.00
2022-11-16T08:23:58.840Z,358.00
2022-11-16T08:24:57.824Z,342.00
2022-11-16T08:25:57.859Z,319.00
2022-11-16T08:26:57.862Z,308.00
2022-11-16T08:27:57.862Z,305.00
2022-11-16T08:28:57.898Z,295.00
2022-11-16T08:29:57.911Z,289.00
2022-11-16T08:30:57.940Z,285.00
2022-11-16T08:31:57.947Z,289.00
2022-11-16T08:32:57.973Z,295.00
2022-11-16T08:33:57.999Z,309.00
2022-11-16T08:34:58.006Z,341.00
2022-11-16T08:35:57.996Z,383.00
2022-11-16T08:36:58.031Z,417.00
2022-11-16T08:37:58.024Z,425.00
2022-11-16T08:38:58.133Z,431.00
2022-11-16T08:39:58.053Z,455.00
2022-11-16T08:40:58.056Z,476.00
2022-11-16T08:41:58.077Z,494.00
2022-11-16T08:42:58.071Z,518.00
2022-11-16T08:43:58.080Z,546.00
2022-11-16T08:44:58.128Z,537.00
2022-11-16T08:45:58.103Z,527.00
2022-11-16T08:46:58.142Z,509.00
2022-11-16T08:48:03.460Z,512.00
2022-11-16T08:48:58.120Z,508.00
2022-11-16T08:49:58.136Z,492.00
2022-11-16T08:51:20.583Z,463.00
2022-11-16T08:51:58.156Z,443.00
2022-11-16T08:52:58.199Z,439.00
2022-11-16T08:53:58.184Z,446.00
2022-11-16T08:54:58.196Z,462.00
2022-11-16T08:55:58.346Z,455.00
2022-11-16T08:56:58.239Z,462.00
2022-11-16T08:57:58.282Z,478.00
2022-11-16T08:58:59.337Z,505.00
2022-11-16T08:59:58.270Z,523.00
2022-11-16T09:00:58.250Z,545.00
2022-11-16T09:01:58.329Z,564.00
2022-11-16T09:02:58.267Z,566.00
2022-11-16T09:03:58.286Z,568.00
2022-11-16T09:04:58.299Z,604.00
2022-11-16T09:05:58.271Z,626.00
2022-11-16T09:06:58.325Z,625.00
2022-11-16T09:07:58.311Z,594.00
2022-11-16T09:08:58.324Z,576.00
2022-11-16T09:09:58.302Z,605.00
2022-11-16T09:10:58.312Z,617.00
2022-11-16T09:11:58.371Z,636.00
2022-11-16T09:12:58.331Z,629.00
2022-11-16T09:13:58.456Z,597.00
2022-11-16T09:14:58.369Z,568.00
2022-11-16T09:15:58.408Z,528.00
2022-11-16T09:16:58.407Z,606.00
2022-11-16T09:17:58.419Z,632.00
2022-11-16T09:18:58.443Z,548.00
2022-11-16T09:19:58.426Z,528.00
2022-11-16T09:20:58.554Z,546.00
2022-11-16T09:21:58.473Z,556.00
2022-11-16T09:22:58.477Z,582.00
2022-11-16T09:23:58.508Z,523.00
2022-11-16T09:24:58.475Z,652.00
2022-11-16T09:25:58.510Z,581.00
2022-11-16T09:26:58.511Z,577.00
2022-11-16T09:27:58.616Z,524.00
2022-11-16T09:28:58.624Z,562.00
2022-11-16T09:29:58.508Z,595.00
2022-11-16T09:30:58.482Z,689.00
2022-11-16T09:31:58.521Z,793.00
2022-11-16T09:32:58.533Z,834.00
2022-11-16T09:33:58.874Z,925.00
2022-11-16T09:34:58.554Z,865.00
2022-11-16T09:35:58.574Z,881.00
2022-11-16T09:36:58.605Z,858.00
2022-11-16T09:37:58.626Z,944.00
2022-11-16T09:39:58.681Z,858.00
2022-11-16T09:40:58.660Z,800.00
2022-11-16T09:41:58.686Z,713.00
2022-11-16T09:42:58.705Z,630.00
2022-11-16T09:43:58.838Z,636.00
2022-11-16T09:44:58.731Z,679.00
2022-11-16T09:45:58.708Z,855.00
2022-11-16T09:46:58.751Z,729.00
2022-11-16T09:47:58.767Z,737.00
2022-11-16T09:48:58.792Z,979.00
2022-11-16T09:50:03.182Z,869.00
2022-11-16T09:50:58.799Z,898.00
2022-11-16T09:51:58.836Z,1013.00
2022-11-16T09:52:58.876Z,761.00
2022-11-16T09:53:58.850Z,743.00
2022-11-16T09:54:58.869Z,786.00
2022-11-16T09:55:58.908Z,776.00
2022-11-16T09:56:58.940Z,744.00
2022-11-16T09:57:58.925Z,606.00
2022-11-16T09:58:58.959Z,566.00
2022-11-16T09:59:59.017Z,590.00
2022-11-16T10:00:59.092Z,643.00
2022-11-16T10:01:59.009Z,685.00
2022-11-16T10:02:59.075Z,714.00
2022-11-16T10:03:59.004Z,725.00
2022-11-16T10:04:59.013Z,713.00
2022-11-16T10:05:59.036Z,696.00
2022-11-16T10:06:59.115Z,712.00
2022-11-16T10:07:59.045Z,653.00
2022-11-16T10:08:59.068Z,619.00
2022-11-16T10:09:59.128Z,655.00
2022-11-16T10:10:59.101Z,613.00
2022-11-16T10:11:59.131Z,582.00
2022-11-16T10:12:59.112Z,583.00
2022-11-16T10:14:03.977Z,741.00
2022-11-16T10:14:59.114Z,808.00
2022-11-16T10:15:59.223Z,638.00
2022-11-16T10:16:59.098Z,729.00
2022-11-16T10:17:59.109Z,533.00
2022-11-16T10:18:59.105Z,702.00
2022-11-16T10:19:59.124Z,762.00
2022-11-16T10:20:59.165Z,644.00
2022-11-16T10:21:59.201Z,655.00
2022-11-16T10:22:59.140Z,555.00
2022-11-16T10:23:59.152Z,806.00
2022-11-16T10:24:59.176Z,601.00
2022-11-16T10:25:59.244Z,539.00
2022-11-16T10:26:59.234Z,524.00
2022-11-16T10:27:59.213Z,538.00
2022-11-16T10:28:59.257Z,525.00
2022-11-16T10:29:59.237Z,517.00
2022-11-16T10:30:59.260Z,538.00
2022-11-16T10:31:59.492Z,615.00
2022-11-16T10:32:59.291Z,724.00
2022-11-16T10:33:59.288Z,927.00
2022-11-16T10:34:59.301Z,1055.00
2022-11-16T10:35:59.265Z,1015.00
2022-11-16T10:36:59.307Z,764.00
2022-11-16T10:37:59.291Z,739.00
2022-11-16T10:38:59.308Z,704.00
2022-11-16T10:39:59.291Z,748.00
2022-11-16T10:40:59.319Z,925.00
2022-11-16T10:42:03.255Z,812.00
2022-11-16T10:42:59.358Z,1010.00
2022-11-16T10:43:59.378Z,1131.00
2022-11-16T10:44:59.355Z,919.00
2022-11-16T10:45:59.331Z,1200.00
2022-11-16T10:46:59.330Z,1091.00
2022-11-16T10:47:59.389Z,1206.00
2022-11-16T10:48:59.358Z,1230.00
2022-11-16T10:49:59.385Z,892.00
2022-11-16T10:50:59.413Z,1067.00
2022-11-16T10:51:59.462Z,836.00
2022-11-16T10:52:59.479Z,792.00
2022-11-16T10:53:59.465Z,965.00
2022-11-16T10:54:59.470Z,939.00
2022-11-16T10:55:59.461Z,916.00
2022-11-16T10:56:59.479Z,884.00
2022-11-16T10:57:59.502Z,682.00
2022-11-16T10:58:59.701Z,711.00
2022-11-16T10:59:59.534Z,1008.00
2022-11-16T11:00:59.622Z,1043.00
2022-11-16T11:01:59.561Z,1082.00
2022-11-16T11:02:59.591Z,1088.00
2022-11-16T11:03:59.758Z,1109.00
2022-11-16T11:04:59.621Z,871.00
2022-11-16T11:05:59.634Z,733.00
2022-11-16T11:06:59.711Z,904.00
2022-11-16T11:07:59.838Z,898.00
2022-11-16T11:08:59.689Z,640.00
2022-11-16T11:09:59.717Z,520.00
2022-11-16T11:10:59.752Z,525.00
2022-11-16T11:11:59.738Z,508.00
2022-11-16T11:12:59.725Z,509.00
2022-11-16T11:13:59.763Z,658.00
2022-11-16T11:14:59.757Z,501.00
2022-11-16T11:15:59.754Z,486.00
2022-11-16T11:16:59.807Z,907.00
2022-11-16T11:17:59.782Z,693.00
2022-11-16T11:18:59.813Z,566.00
2022-11-16T11:19:59.934Z,949.00
2022-11-16T11:20:59.812Z,536.00
2022-11-16T11:21:59.837Z,512.00
2022-11-16T11:22:59.854Z,567.00
2022-11-16T11:24:29.348Z,545.00
2022-11-16T11:24:59.897Z,515.00
2022-11-16T11:25:59.885Z,556.00
2022-11-16T11:26:59.891Z,869.00
2022-11-16T11:27:59.880Z,518.00
2022-11-16T11:28:59.879Z,952.00
2022-11-16T11:29:59.846Z,622.00
2022-11-16T11:30:59.849Z,561.00
2022-11-16T11:31:59.869Z,469.00
2022-11-16T11:32:59.889Z,467.00
2022-11-16T11:33:59.952Z,714.00
2022-11-16T11:34:59.930Z,474.00
2022-11-16T11:35:59.963Z,459.00
2022-11-16T11:36:59.968Z,894.00
2022-11-16T11:38:04.748Z,485.00
2022-11-16T11:39:00.254Z,466.00
2022-11-16T11:40:00.034Z,439.00
2022-11-16T11:41:00.034Z,447.00
2022-11-16T11:42:00.008Z,881.00
2022-11-16T11:43:00.054Z,454.00
2022-11-16T11:44:00.054Z,796.00
2022-11-16T11:45:00.182Z,647.00
2022-11-16T11:46:00.024Z,762.00
2022-11-16T11:47:50.222Z,529.00
2022-11-16T11:48:00.485Z,465.00
2022-11-16T11:49:00.116Z,473.00
2022-11-16T11:50:00.056Z,472.00
2022-11-16T11:51:00.105Z,485.00
2022-11-16T11:52:00.226Z,489.00
2022-11-16T11:53:00.126Z,494.00
2022-11-16T11:54:00.109Z,553.00
2022-11-16T11:55:00.162Z,653.00
2022-11-16T11:56:00.164Z,1209.00
2022-11-16T11:57:00.133Z,1259.00
2022-11-16T11:58:00.171Z,1126.00
2022-11-16T11:59:00.146Z,757.00
2022-11-16T12:00:00.131Z,558.00
2022-11-16T12:01:00.181Z,568.00
2022-11-16T12:02:00.144Z,952.00
2022-11-16T12:03:00.272Z,546.00
2022-11-16T12:04:01.350Z,564.00
2022-11-16T12:05:00.239Z,1072.00
2022-11-16T12:06:00.253Z,858.00
2022-11-16T12:07:00.311Z,841.00
2022-11-16T12:08:00.347Z,1189.00
2022-11-16T12:09:00.215Z,1167.00
2022-11-16T12:10:00.238Z,1108.00
2022-11-16T12:11:00.269Z,1010.00
2022-11-16T12:12:00.245Z,1028.00
2022-11-16T12:13:00.254Z,1181.00
2022-11-16T12:14:00.248Z,1285.00
2022-11-16T12:15:00.228Z,1257.00
2022-11-16T12:16:00.265Z,1209.00
2022-11-16T12:17:00.272Z,1016.00
2022-11-16T12:18:00.292Z,909.00
2022-11-16T12:19:00.326Z,941.00
2022-11-16T12:20:00.309Z,980.00
2022-11-16T12:21:00.346Z,948.00
2022-11-16T12:22:00.344Z,848.00
2022-11-16T12:23:03.942Z,832.00
2022-11-16T12:24:00.504Z,860.00
2022-11-16T12:25:00.375Z,1150.00
2022-11-16T12:26:00.507Z,1203.00
2022-11-16T12:27:00.431Z,1246.00
2022-11-16T12:28:00.463Z,1170.00
2022-11-16T12:29:00.427Z,1221.00
2022-11-16T12:30:00.429Z,1319.00
2022-11-16T12:31:00.417Z,1429.00
2022-11-16T12:32:00.409Z,1488.00
2022-11-16T12:33:00.399Z,1681.00
2022-11-16T12:34:00.429Z,1687.00
2022-11-16T12:35:00.456Z,1534.00
2022-11-16T12:36:00.432Z,1744.00
2022-11-16T12:37:00.431Z,1705.00
2022-11-16T12:38:00.469Z,1598.00
2022-11-16T12:39:00.504Z,1484.00
2022-11-16T12:40:00.643Z,1193.00
2022-11-16T12:41:00.512Z,1284.00
2022-11-16T12:42:00.521Z,1116.00
2022-11-16T12:43:00.510Z,1066.00
2022-11-16T12:44:00.533Z,905.00
2022-11-16T12:45:00.532Z,837.00
2022-11-16T12:46:00.547Z,807.00
2022-11-16T12:47:00.502Z,790.00
2022-11-16T12:48:00.528Z,788.00
2022-11-16T12:49:00.567Z,784.00
2022-11-16T12:50:00.570Z,780.00
2022-11-16T12:51:00.622Z,768.00
2022-11-16T12:52:00.583Z,749.00
2022-11-16T12:53:00.564Z,720.00
2022-11-16T12:54:00.588Z,715.00
2022-11-16T12:55:28.679Z,717.00
2022-11-16T12:56:00.643Z,696.00
2022-11-16T12:57:00.618Z,667.00